createdAt,value
2019-05-23T00:01:02.622Z,9.00
2019-05-23T00:04:34.588Z,10.37
2019-05-23T00:08:01.906Z,12.30
2019-05-23T00:11:33.597Z,10.97
2019-05-23T00:14:50.895Z,10.40
2019-05-23T00:17:59.422Z,11.33
2019-05-23T00:21:08.019Z,13.23
2019-05-23T00:24:15.918Z,13.10
2019-05-23T00:27:25.045Z,26.63
2019-05-23T00:30:49.959Z,12.20
2019-05-23T00:33:59.235Z,10.93
2019-05-23T00:37:07.365Z,12.20
2019-05-23T00:40:16.121Z,13.57
2019-05-23T00:43:24.850Z,11.50
2019-05-23T00:46:32.546Z,13.30
2019-05-23T00:49:41.726Z,11.97
2019-05-23T00:52:51.111Z,9.40
2019-05-23T00:56:01.666Z,8.17
2019-05-23T00:59:25.653Z,9.00
2019-05-23T01:02:19.900Z,8.20
2019-05-23T01:05:28.508Z,9.77
2019-05-23T01:08:38.426Z,9.67
2019-05-23T01:11:46.669Z,8.77
2019-05-23T01:14:55.687Z,7.90
2019-05-23T01:18:04.298Z,6.27
2019-05-23T01:21:24.041Z,5.93
2019-05-23T01:24:43.437Z,6.03
2019-05-23T01:27:51.637Z,7.10
2019-05-23T01:31:00.730Z,7.20
2019-05-23T01:34:11.856Z,7.27
2019-05-23T01:37:20.156Z,9.67
2019-05-23T01:40:27.865Z,8.80
2019-05-23T01:43:35.916Z,9.67
2019-05-23T01:46:44.128Z,7.53
2019-05-23T01:49:51.584Z,6.17
2019-05-23T01:52:59.659Z,7.37
2019-05-23T01:56:07.244Z,6.30
2019-05-23T01:59:14.874Z,5.93
2019-05-23T02:02:23.268Z,5.33
2019-05-23T02:05:31.306Z,5.37
2019-05-23T02:08:39.656Z,5.27
2019-05-23T02:11:47.709Z,4.23
2019-05-23T02:14:56.058Z,3.87
2019-05-23T02:18:04.868Z,6.37
2019-05-23T02:21:12.776Z,9.73
2019-05-23T02:24:21.300Z,6.90
2019-05-23T02:27:28.946Z,6.60
2019-05-23T02:30:38.753Z,8.47
2019-05-23T02:33:46.333Z,8.00
2019-05-23T02:36:55.448Z,7.70
2019-05-23T02:40:14.064Z,8.23
2019-05-23T02:43:24.065Z,6.80
2019-05-23T02:46:38.431Z,8.57
2019-05-23T02:49:48.826Z,10.67
2019-05-23T02:52:56.675Z,9.10
2019-05-23T02:56:08.289Z,7.60
2019-05-23T02:59:51.529Z,7.97
2019-05-23T03:03:07.087Z,8.20
2019-05-23T03:06:17.798Z,9.60
2019-05-23T03:09:26.679Z,7.63
2019-05-23T03:12:35.770Z,8.70
2019-05-23T03:15:44.204Z,7.83
2019-05-23T03:18:58.177Z,8.20
2019-05-23T03:22:31.921Z,11.70
2019-05-23T03:26:21.024Z,9.93
2019-05-23T03:29:30.399Z,10.23
2019-05-23T03:32:47.035Z,10.30
2019-05-23T03:35:57.087Z,7.73
2019-05-23T03:39:07.045Z,8.77
2019-05-23T03:42:15.491Z,10.00
2019-05-23T03:45:26.796Z,10.30
2019-05-23T03:48:34.830Z,11.97
2019-05-23T03:51:42.976Z,10.37
2019-05-23T03:54:52.700Z,9.93
2019-05-23T03:58:01.599Z,10.60
2019-05-23T04:01:11.483Z,9.90
2019-05-23T04:04:19.429Z,11.57
2019-05-23T04:07:27.006Z,10.57
2019-05-23T04:10:34.842Z,10.43
2019-05-23T04:13:42.936Z,11.40
2019-05-23T04:16:50.685Z,9.77
2019-05-23T04:19:58.365Z,9.97
2019-05-23T04:23:07.624Z,12.07
2019-05-23T04:26:15.539Z,10.57
2019-05-23T04:29:26.063Z,9.63
2019-05-23T04:32:34.204Z,9.57
2019-05-23T04:35:41.756Z,9.50
2019-05-23T04:38:49.555Z,11.10
2019-05-23T04:41:57.109Z,8.07
2019-05-23T04:45:05.270Z,9.83
2019-05-23T04:48:13.104Z,9.80
2019-05-23T04:51:21.598Z,8.97
2019-05-23T04:54:30.051Z,9.97
2019-05-23T04:57:37.855Z,11.87
2019-05-23T05:00:47.232Z,11.00
2019-05-23T05:03:54.985Z,11.07
2019-05-23T05:07:02.670Z,11.00
2019-05-23T05:10:12.216Z,10.87
2019-05-23T05:13:19.684Z,12.93
2019-05-23T05:16:27.483Z,8.70
2019-05-23T05:19:35.084Z,8.63
2019-05-23T05:22:42.540Z,8.70
2019-05-23T05:25:50.034Z,7.80
2019-05-23T05:28:57.475Z,10.77
2019-05-23T05:32:06.823Z,11.60
2019-05-23T05:35:15.467Z,10.80
2019-05-23T05:38:22.986Z,8.80
2019-05-23T05:41:31.185Z,8.13
2019-05-23T05:44:39.381Z,8.60
2019-05-23T05:47:47.276Z,8.83
2019-05-23T05:50:55.520Z,9.67
2019-05-23T05:54:03.238Z,9.97
2019-05-23T05:57:11.639Z,8.87
2019-05-23T06:00:45.662Z,11.17
2019-05-23T06:03:54.010Z,11.13
2019-05-23T06:07:29.100Z,12.60
2019-05-23T06:10:39.421Z,10.77
2019-05-23T06:13:47.101Z,11.97
2019-05-23T06:16:56.317Z,11.40
2019-05-23T06:20:03.772Z,9.40
2019-05-23T06:23:13.528Z,8.23
2019-05-23T06:26:21.281Z,9.27
2019-05-23T06:29:29.616Z,9.10
2019-05-23T06:32:38.069Z,10.87
2019-05-23T06:35:45.868Z,10.83
2019-05-23T06:38:53.497Z,13.30
2019-05-23T06:42:01.372Z,12.37
2019-05-23T06:45:11.939Z,12.30
2019-05-23T06:48:21.509Z,11.80
2019-05-23T06:51:29.361Z,12.97
2019-05-23T06:54:36.851Z,12.00
2019-05-23T06:57:44.412Z,10.37
2019-05-23T07:00:52.281Z,12.63
2019-05-23T07:04:01.082Z,11.37
2019-05-23T07:07:09.947Z,12.37
2019-05-23T07:10:17.944Z,13.00
2019-05-23T07:13:27.820Z,12.90
2019-05-23T07:16:35.569Z,13.67
2019-05-23T07:19:43.065Z,13.23
2019-05-23T07:22:50.599Z,12.20
2019-05-23T07:25:58.023Z,12.27
2019-05-23T07:29:08.062Z,13.13
2019-05-23T07:32:15.656Z,11.23
2019-05-23T07:35:24.032Z,13.03
2019-05-23T07:38:31.563Z,15.10
2019-05-23T07:41:39.932Z,16.33
2019-05-23T07:44:48.967Z,13.53
2019-05-23T07:47:56.521Z,12.73
2019-05-23T07:51:04.024Z,13.77
2019-05-23T07:54:29.136Z,18.57
2019-05-23T07:57:37.558Z,14.57
2019-05-23T08:00:53.160Z,13.30
2019-05-23T08:04:17.948Z,13.57
2019-05-23T08:07:11.606Z,13.40
2019-05-23T08:10:33.182Z,12.73
2019-05-23T08:13:28.842Z,14.60
2019-05-23T08:16:36.476Z,10.50
2019-05-23T08:19:49.815Z,12.33
2019-05-23T08:22:53.628Z,18.60
2019-05-23T08:26:01.426Z,16.80
2019-05-23T08:29:26.462Z,14.90
2019-05-23T08:32:18.028Z,13.77
2019-05-23T08:35:25.717Z,17.73
2019-05-23T08:38:33.744Z,22.73
2019-05-23T08:41:41.264Z,22.27
2019-05-23T08:44:49.031Z,17.07
2019-05-23T08:47:56.444Z,19.73
2019-05-23T08:51:04.528Z,14.70
2019-05-23T08:54:12.083Z,23.40
2019-05-23T08:57:19.944Z,18.10
2019-05-23T09:00:28.898Z,14.97
2019-05-23T09:03:36.718Z,13.10
2019-05-23T09:06:44.692Z,15.50
2019-05-23T09:09:52.115Z,16.00
2019-05-23T09:12:59.852Z,17.50
2019-05-23T09:16:07.854Z,17.63
2019-05-23T09:19:15.707Z,18.50
2019-05-23T09:22:23.560Z,16.80
2019-05-23T09:25:31.303Z,18.03
2019-05-23T09:28:39.248Z,17.77
2019-05-23T09:31:48.207Z,16.53
2019-05-23T09:34:55.952Z,18.00
2019-05-23T09:38:03.377Z,20.07
2019-05-23T09:41:11.273Z,20.80
2019-05-23T09:44:19.025Z,18.30
2019-05-23T09:47:26.938Z,19.30
2019-05-23T09:50:34.848Z,21.07
2019-05-23T09:53:46.981Z,22.47
2019-05-23T09:56:51.810Z,28.97
2019-05-23T09:59:59.339Z,19.60
2019-05-23T10:03:07.399Z,17.80
2019-05-23T10:06:14.849Z,30.70
2019-05-23T10:09:22.312Z,28.50
2019-05-23T10:12:29.773Z,26.70
2019-05-23T10:16:05.214Z,19.37
2019-05-23T10:19:12.849Z,17.27
2019-05-23T10:22:20.427Z,16.40
2019-05-23T10:25:27.842Z,13.57
2019-05-23T10:28:35.324Z,14.13
2019-05-23T10:31:43.824Z,14.80
2019-05-23T10:34:52.902Z,14.00
2019-05-23T10:38:00.442Z,13.60
2019-05-23T10:41:09.293Z,16.80
2019-05-23T10:44:16.938Z,15.93
2019-05-23T10:47:24.757Z,17.50
2019-05-23T10:50:44.116Z,17.37
2019-05-23T10:53:41.330Z,17.07
2019-05-23T10:56:48.880Z,16.27
2019-05-23T10:59:56.517Z,17.00
2019-05-23T11:03:04.111Z,25.63
2019-05-23T11:06:16.655Z,16.80
2019-05-23T11:09:36.705Z,16.20
2019-05-23T11:12:31.851Z,14.73
2019-05-23T11:15:39.309Z,16.37
2019-05-23T11:18:47.219Z,15.00
2019-05-23T11:21:54.700Z,17.23
2019-05-23T11:25:02.771Z,19.53
2019-05-23T11:28:10.229Z,18.80
2019-05-23T11:31:18.510Z,21.37
2019-05-23T11:34:26.515Z,22.33
2019-05-23T11:37:34.147Z,20.07
2019-05-23T11:40:42.189Z,22.27
2019-05-23T11:43:50.315Z,18.33
2019-05-23T11:46:57.786Z,18.03
2019-05-23T11:50:07.599Z,18.47
2019-05-23T11:53:15.111Z,19.43
2019-05-23T11:56:22.573Z,18.40
2019-05-23T11:59:30.201Z,18.00
2019-05-23T12:02:42.011Z,16.43
2019-05-23T12:05:49.488Z,15.03
2019-05-23T12:08:56.998Z,14.70
2019-05-23T12:12:04.520Z,14.53
2019-05-23T12:15:18.258Z,15.93
2019-05-23T12:18:25.941Z,18.80
2019-05-23T12:21:33.430Z,20.97
2019-05-23T12:24:40.937Z,18.97
2019-05-23T12:27:48.712Z,21.30
2019-05-23T12:30:56.811Z,21.10
2019-05-23T12:34:04.218Z,17.43
2019-05-23T12:37:19.208Z,14.93
2019-05-23T12:40:21.042Z,13.10
2019-05-23T12:43:28.520Z,12.60
2019-05-23T12:46:35.968Z,12.37
2019-05-23T12:49:48.836Z,13.93
2019-05-23T12:52:56.746Z,12.60
2019-05-23T12:56:04.196Z,13.90
2019-05-23T12:59:12.315Z,13.73
2019-05-23T13:02:23.739Z,15.33
2019-05-23T13:05:32.145Z,16.60
2019-05-23T13:08:40.631Z,17.23
2019-05-23T13:11:48.671Z,12.90
2019-05-23T13:14:58.891Z,14.77
2019-05-23T13:18:05.596Z,12.47
2019-05-23T13:21:13.267Z,13.13
2019-05-23T13:24:21.299Z,16.90
2019-05-23T13:27:29.201Z,16.70
2019-05-23T13:30:36.659Z,15.60
2019-05-23T13:33:44.935Z,12.23
2019-05-23T13:36:52.523Z,11.00
2019-05-23T13:40:00.070Z,13.00
2019-05-23T13:43:09.119Z,14.07
2019-05-23T13:46:16.960Z,14.57
2019-05-23T13:49:24.740Z,14.40
2019-05-23T13:52:32.499Z,16.37
2019-05-23T13:55:40.221Z,15.30
2019-05-23T13:58:47.725Z,15.43
2019-05-23T14:01:56.082Z,17.30
2019-05-23T14:05:04.527Z,16.57
2019-05-23T14:08:13.478Z,17.30
2019-05-23T14:11:21.484Z,18.13
2019-05-23T14:14:29.130Z,19.60
2019-05-23T14:17:44.296Z,23.37
2019-05-23T14:20:52.025Z,20.53
2019-05-23T14:23:59.739Z,23.73
2019-05-23T14:27:17.084Z,26.30
2019-05-23T14:30:42.047Z,29.10
2019-05-23T14:34:14.355Z,24.77
2019-05-23T14:37:27.657Z,24.90
2019-05-23T14:40:35.709Z,27.67
2019-05-23T14:43:45.210Z,30.93
2019-05-23T14:47:11.591Z,29.17
2019-05-23T14:50:46.707Z,31.87
2019-05-23T14:54:12.268Z,30.23
2019-05-23T14:57:19.991Z,30.90
2019-05-23T15:00:28.092Z,32.00
2019-05-23T15:03:36.269Z,32.93
2019-05-23T15:06:43.988Z,38.63
2019-05-23T15:09:51.618Z,42.20
2019-05-23T15:12:59.623Z,47.07
2019-05-23T15:16:07.502Z,40.10
2019-05-23T15:19:25.869Z,34.50
2019-05-23T15:22:24.498Z,30.63
2019-05-23T15:25:32.139Z,30.13
2019-05-23T15:28:39.647Z,30.60
2019-05-23T15:32:01.613Z,31.57
2019-05-23T15:34:57.637Z,31.93
2019-05-23T15:38:05.183Z,32.73
2019-05-23T15:41:13.516Z,30.63
2019-05-23T15:44:27.102Z,30.90
2019-05-23T15:47:33.402Z,33.60
2019-05-23T15:50:46.410Z,30.10
2019-05-23T15:54:19.510Z,31.53
2019-05-23T15:57:51.994Z,36.47
2019-05-23T16:01:09.307Z,38.73
2019-05-23T16:04:19.055Z,28.73
2019-05-23T16:07:27.122Z,35.70
2019-05-23T16:10:35.723Z,36.00
2019-05-23T16:13:43.524Z,37.67
2019-05-23T16:16:55.609Z,38.07
2019-05-23T16:20:00.736Z,32.60
2019-05-23T16:23:08.539Z,34.00
2019-05-23T16:26:16.067Z,33.37
2019-05-23T16:29:23.687Z,34.80
2019-05-23T16:32:31.456Z,33.60
2019-05-23T16:35:38.984Z,35.67
2019-05-23T16:38:46.528Z,38.80
2019-05-23T16:41:55.007Z,40.03
2019-05-23T16:45:02.697Z,38.87
2019-05-23T16:48:10.569Z,39.97
2019-05-23T16:51:18.055Z,42.00
2019-05-23T16:54:30.574Z,47.00
2019-05-23T16:57:44.127Z,59.43
2019-05-23T17:01:23.564Z,50.70
2019-05-23T17:04:35.133Z,49.00
2019-05-23T17:07:51.674Z,50.07
2019-05-23T17:11:04.166Z,51.40
2019-05-23T17:14:20.066Z,53.13
2019-05-23T17:18:00.678Z,54.87
2019-05-23T17:21:13.450Z,59.50
2019-05-23T17:24:53.094Z,56.27
2019-05-23T17:28:22.377Z,55.67
2019-05-23T17:31:34.583Z,54.90
2019-05-23T17:34:42.015Z,54.20
2019-05-23T17:37:49.709Z,51.90
2019-05-23T17:40:57.833Z,55.40
2019-05-23T17:44:07.513Z,58.67
2019-05-23T17:47:15.895Z,72.00
2019-05-23T17:50:24.324Z,67.17
2019-05-23T17:53:32.468Z,65.77
2019-05-23T17:56:41.250Z,66.57
2019-05-23T17:59:49.354Z,59.70
2019-05-23T18:02:58.399Z,55.50
2019-05-23T18:06:07.932Z,60.30
2019-05-23T18:09:16.656Z,60.20
2019-05-23T18:12:24.250Z,51.57
2019-05-23T18:15:32.305Z,51.07
2019-05-23T18:18:40.331Z,52.60
2019-05-23T18:21:48.212Z,49.20
2019-05-23T18:24:59.772Z,51.50
2019-05-23T18:28:06.746Z,46.57
2019-05-23T18:31:22.876Z,46.83
2019-05-23T18:34:32.331Z,44.67
2019-05-23T18:37:40.596Z,44.60
2019-05-23T18:41:02.287Z,40.70
2019-05-23T18:43:59.604Z,41.53
2019-05-23T18:47:12.288Z,39.53
2019-05-23T18:50:38.135Z,39.60
2019-05-23T18:53:46.285Z,39.97
2019-05-23T18:56:54.319Z,40.97
2019-05-23T19:00:20.090Z,40.73
2019-05-23T19:03:27.737Z,40.33
2019-05-23T19:06:35.636Z,39.40
2019-05-23T19:09:45.085Z,41.13
2019-05-23T19:12:55.990Z,39.57
2019-05-23T19:16:05.755Z,41.57
2019-05-23T19:19:14.142Z,34.07
2019-05-23T19:22:21.903Z,36.20
2019-05-23T19:25:29.981Z,33.83
2019-05-23T19:28:38.247Z,34.60
2019-05-23T19:32:05.456Z,34.37
2019-05-23T19:35:31.491Z,35.20
2019-05-23T19:38:39.757Z,35.17
2019-05-23T19:41:48.014Z,39.53
2019-05-23T19:44:56.411Z,36.30
2019-05-23T19:48:04.154Z,35.97
2019-05-23T19:51:47.667Z,34.93
2019-05-23T19:55:12.772Z,35.83
2019-05-23T19:58:26.192Z,37.37
2019-05-23T20:01:51.038Z,38.30
2019-05-23T20:05:02.836Z,33.10
2019-05-23T20:08:10.828Z,38.20
2019-05-23T20:11:18.240Z,40.87
2019-05-23T20:14:27.052Z,37.17
2019-05-23T20:17:34.910Z,32.17
2019-05-23T20:21:00.924Z,32.70
2019-05-23T20:24:08.509Z,119.40
2019-05-23T20:27:52.276Z,34.00
2019-05-23T20:30:59.974Z,33.80
2019-05-23T20:34:07.725Z,33.80
2019-05-23T20:37:16.316Z,46.10
2019-05-23T20:40:23.998Z,66.83
2019-05-23T20:43:31.699Z,51.30
2019-05-23T20:46:57.098Z,37.77
2019-05-23T20:50:22.404Z,29.30
2019-05-23T20:53:48.088Z,29.80
2019-05-23T20:57:13.460Z,29.80
2019-05-23T21:01:10.144Z,31.03
2019-05-23T21:04:17.926Z,29.77
2019-05-23T21:08:00.927Z,28.77
2019-05-23T21:11:08.503Z,31.60
2019-05-23T21:14:16.556Z,30.57
2019-05-23T21:17:25.493Z,32.03
2019-05-23T21:20:33.041Z,32.67
2019-05-23T21:23:40.578Z,34.17
2019-05-23T21:27:23.285Z,29.93
2019-05-23T21:30:30.860Z,28.60
2019-05-23T21:34:14.694Z,30.87
2019-05-23T21:37:22.319Z,27.77
2019-05-23T21:40:43.121Z,27.50
2019-05-23T21:43:52.665Z,28.10
2019-05-23T21:47:17.908Z,29.50
2019-05-23T21:50:25.479Z,30.33
2019-05-23T21:53:32.948Z,31.37
2019-05-23T21:56:40.512Z,28.73
2019-05-23T22:00:08.486Z,28.17
2019-05-23T22:03:35.551Z,28.97
2019-05-23T22:07:02.570Z,28.90
2019-05-23T22:10:28.587Z,26.80
2019-05-23T22:13:36.122Z,28.23
2019-05-23T22:17:20.957Z,28.37
2019-05-23T22:21:03.468Z,28.53
2019-05-23T22:24:29.100Z,27.50
2019-05-23T22:27:37.086Z,28.97
2019-05-23T22:30:44.550Z,30.20
2019-05-23T22:33:58.309Z,28.13
2019-05-23T22:37:11.524Z,29.87
2019-05-23T22:40:38.684Z,31.03
2019-05-23T22:43:46.076Z,29.90
2019-05-23T22:47:11.438Z,30.30
2019-05-23T22:50:19.028Z,30.67
2019-05-23T22:53:26.658Z,33.57
2019-05-23T22:56:34.155Z,33.60
2019-05-23T22:59:59.668Z,30.97
2019-05-23T23:03:07.494Z,31.50
2019-05-23T23:06:15.725Z,31.37
2019-05-23T23:09:41.030Z,33.30
2019-05-23T23:12:49.005Z,28.60
2019-05-23T23:16:14.327Z,30.20
2019-05-23T23:19:21.728Z,31.87
2019-05-23T23:22:29.254Z,32.20
2019-05-23T23:25:37.480Z,28.00
2019-05-23T23:28:44.960Z,28.90
2019-05-23T23:31:52.490Z,29.00
2019-05-23T23:34:59.987Z,30.47
2019-05-23T23:38:25.378Z,31.60
2019-05-23T23:41:32.906Z,31.17
2019-05-23T23:44:57.951Z,31.90
2019-05-23T23:48:23.120Z,29.20
2019-05-23T23:51:48.242Z,27.80
2019-05-23T23:55:13.771Z,27.07
2019-05-23T23:58:20.158Z,26.53
